Time;durP1;ratioP1;P1;durP2;ratioP2;P2;SDS_P1;SDS_P2;PMS_P1;PMS_P2;Temp;Humidity;BMP_temperature;BMP_pressure;BME280_temperature;BME280_humidity;BME280_pressure;Samples;Min_cycle;Max_cycle;Signal;HPM_P1;HPM_P2
2022/01/14 00:01:41;;;;;;;10.05;7.13;;;;;;;;;;5023840;28;20025;-57
2022/01/14 00:04:06;;;;;;;9.97;7.60;;;;;;;;;;5024082;28;20029;-53
2022/01/14 00:06:31;;;;;;;10.93;7.35;;;;;;;;;;5024403;28;20365;-59
2022/01/14 00:09:05;;;;;;;9.20;7.23;;;;;;;;;;5025636;28;20484;-53
2022/01/14 00:11:31;;;;;;;10.40;8.07;;;;;;;;;;5027686;28;20438;-59
2022/01/14 00:16:54;;;;;;;10.95;7.95;;;;;;;;;;5001584;28;20037;-56
2022/01/14 00:19:19;;;;;;;11.00;7.80;;;;;;;;;;5025123;28;20037;-55
2022/01/14 00:21:45;;;;;;;10.30;7.53;;;;;;;;;;5027751;28;20037;-55
2022/01/14 00:24:23;;;;;;;11.18;8.18;;;;;;;;;;5027288;28;20045;-55
2022/01/14 00:35:00;;;;;;;10.10;7.45;;;;;;;;;;5027651;28;20115;-59
2022/01/14 00:37:25;;;;;;;11.43;8.10;;;;;;;;;;5027514;28;20495;-58
2022/01/14 00:39:50;;;;;;;11.10;8.07;;;;;;;;;;5027600;28;20651;-58
2022/01/14 00:42:15;;;;;;;11.37;7.70;;;;;;;;;;5027040;28;20268;-59
2022/01/14 00:44:41;;;;;;;11.17;7.90;;;;;;;;;;5027340;28;20276;-58
2022/01/14 00:47:06;;;;;;;10.80;7.90;;;;;;;;;;5027119;28;20279;-54
2022/01/14 00:49:31;;;;;;;9.57;7.13;;;;;;;;;;5027080;28;20268;-60
2022/01/14 00:51:57;;;;;;;10.18;7.53;;;;;;;;;;5027016;28;20160;-55
2022/01/14 00:54:24;;;;;;;10.93;7.50;;;;;;;;;;5026757;28;20095;-57
2022/01/14 00:57:03;;;;;;;11.65;7.88;;;;;;;;;;5027164;28;20541;-55
2022/01/14 00:59:28;;;;;;;10.85;7.80;;;;;;;;;;5026755;28;20585;-57
2022/01/14 01:01:56;;;;;;;10.15;7.25;;;;;;;;;;5026726;28;20450;-58
2022/01/14 01:04:22;;;;;;;10.25;7.05;;;;;;;;;;5027063;28;20033;-55
2022/01/14 01:06:48;;;;;;;10.88;7.85;;;;;;;;;;5026977;28;20041;-58
2022/01/14 01:09:13;;;;;;;10.13;7.63;;;;;;;;;;5026887;28;20447;-58
2022/01/14 01:11:44;;;;;;;11.13;8.02;;;;;;;;;;5026597;28;20045;-60
2022/01/14 01:14:23;;;;;;;;;;;;;;;;;;5027385;28;20060;-58
2022/01/14 01:16:48;;;;;;;9.55;7.03;;;;;;;;;;5026720;28;19935;-55
2022/01/14 01:19:13;;;;;;;11.43;8.02;;;;;;;;;;5026935;28;20108;-58
2022/01/14 01:21:39;;;;;;;11.57;7.78;;;;;;;;;;5025647;28;20014;-58
2022/01/14 01:24:04;;;;;;;10.17;7.47;;;;;;;;;;5026319;28;20134;-55
2022/01/14 01:26:36;;;;;;;10.63;7.22;;;;;;;;;;5026376;28;20037;-59
2022/01/14 01:31:40;;;;;;;9.98;6.93;;;;;;;;;;5026421;28;20484;-57
2022/01/14 01:34:10;;;;;;;9.40;6.80;;;;;;;;;;5026177;28;20032;-57
2022/01/14 01:36:35;;;;;;;9.30;7.30;;;;;;;;;;5026267;28;20412;-54
2022/01/14 01:39:00;;;;;;;10.82;7.82;;;;;;;;;;5026060;28;20021;-58
2022/01/14 01:41:25;;;;;;;10.13;7.83;;;;;;;;;;5026146;28;20116;-60
2022/01/14 01:43:53;;;;;;;11.37;7.70;;;;;;;;;;5026383;28;20300;-59
2022/01/14 01:46:20;;;;;;;10.65;7.88;;;;;;;;;;5026271;28;20268;-55
2022/01/14 01:48:45;;;;;;;11.32;7.47;;;;;;;;;;5026276;28;20496;-59
2022/01/14 01:51:11;;;;;;;10.57;7.50;;;;;;;;;;5025961;28;20040;-56
2022/01/14 01:53:36;;;;;;;10.53;7.43;;;;;;;;;;5025921;28;20057;-60
2022/01/14 01:56:01;;;;;;;10.30;7.43;;;;;;;;;;5025885;28;20276;-57
2022/01/14 01:58:26;;;;;;;10.20;7.10;;;;;;;;;;5026075;28;20279;-55
2022/01/14 02:00:52;;;;;;;10.13;7.38;;;;;;;;;;5025847;28;20587;-58
2022/01/14 02:03:17;;;;;;;9.93;7.40;;;;;;;;;;5025726;28;20021;-57
2022/01/14 02:05:43;;;;;;;10.47;7.53;;;;;;;;;;5024252;28;20275;-55
2022/01/14 02:08:09;;;;;;;10.20;7.65;;;;;;;;;;5025839;28;20049;-58
2022/01/14 02:10:34;;;;;;;10.80;7.73;;;;;;;;;;5025526;28;20076;-60
2022/01/14 02:13:01;;;;;;;10.07;7.30;;;;;;;;;;5025601;28;20334;-55
2022/01/14 02:15:30;;;;;;;10.10;7.30;;;;;;;;;;5025384;28;20036;-58
2022/01/14 02:23:20;;;;;;;11.20;7.50;;;;;;;;;;5025334;28;19920;-57
2022/01/14 02:25:46;;;;;;;10.63;7.05;;;;;;;;;;5025460;28;20480;-57
2022/01/14 02:28:13;;;;;;;8.88;6.45;;;;;;;;;;5025578;28;20026;-58
2022/01/14 02:30:39;;;;;;;10.20;7.47;;;;;;;;;;5025350;28;20102;-58
2022/01/14 02:33:05;;;;;;;11.35;7.95;;;;;;;;;;5024191;28;20045;-56
2022/01/14 02:35:30;;;;;;;10.82;7.88;;;;;;;;;;5025163;28;20017;-57
2022/01/14 02:37:55;;;;;;;10.90;7.60;;;;;;;;;;5023849;28;20091;-57
2022/01/14 02:40:21;;;;;;;9.43;6.43;;;;;;;;;;5025199;28;20033;-55
2022/01/14 02:42:48;;;;;;;10.77;7.28;;;;;;;;;;5025131;28;20025;-58
2022/01/14 02:45:13;;;;;;;9.38;7.00;;;;;;;;;;5025098;28;20025;-60
2022/01/14 02:47:38;;;;;;;9.90;7.10;;;;;;;;;;5024929;28;20116;-58
2022/01/14 02:50:06;;;;;;;9.77;7.05;;;;;;;;;;5024769;28;20041;-59
2022/01/14 02:52:56;;;;;;;9.48;6.65;;;;;;;;;;5024996;28;20029;-55
2022/01/14 02:55:27;;;;;;;11.05;7.45;;;;;;;;;;5024656;28;20029;-56
2022/01/14 02:57:52;;;;;;;9.95;7.00;;;;;;;;;;5024852;28;20021;-57
2022/01/14 03:00:18;;;;;;;9.32;6.80;;;;;;;;;;5024740;28;20032;-56
2022/01/14 03:02:45;;;;;;;10.02;7.03;;;;;;;;;;5024684;28;20106;-59
2022/01/14 03:05:10;;;;;;;10.45;7.22;;;;;;;;;;5024845;28;20040;-55
2022/01/14 03:07:36;;;;;;;10.68;7.05;;;;;;;;;;5024352;28;20025;-55
2022/01/14 03:10:01;;;;;;;10.73;6.75;;;;;;;;;;5024337;28;20064;-59
2022/01/14 03:12:26;;;;;;;9.57;7.00;;;;;;;;;;5024677;28;20522;-58
2022/01/14 03:14:53;;;;;;;11.00;7.50;;;;;;;;;;5024622;28;20663;-59
2022/01/14 03:17:18;;;;;;;10.32;7.10;;;;;;;;;;5024687;28;20343;-54
2022/01/14 03:19:45;;;;;;;10.37;7.17;;;;;;;;;;5024345;28;20100;-56
2022/01/14 03:23:03;;;;;;;9.15;7.00;;;;;;;;;;5024603;28;20275;-57
2022/01/14 03:27:43;;;;;;;9.10;6.88;;;;;;;;;;5024345;28;20091;-55
2022/01/14 03:30:08;;;;;;;10.53;7.20;;;;;;;;;;5024354;28;20041;-58
2022/01/14 03:32:33;;;;;;;9.43;6.70;;;;;;;;;;5024360;28;20272;-56
2022/01/14 03:34:58;;;;;;;10.17;7.10;;;;;;;;;;5024084;28;20025;-54
2022/01/14 03:37:24;;;;;;;9.93;6.80;;;;;;;;;;5024105;28;20339;-57
2022/01/14 03:39:49;;;;;;;8.57;6.47;;;;;;;;;;5019303;28;20498;-56
2022/01/14 03:42:14;;;;;;;9.77;6.63;;;;;;;;;;5011703;28;20032;-55
2022/01/14 03:44:39;;;;;;;9.25;6.45;;;;;;;;;;5024222;28;20319;-57
2022/01/14 03:47:05;;;;;;;9.68;6.90;;;;;;;;;;5024114;28;20476;-57
2022/01/14 03:49:30;;;;;;;9.43;7.20;;;;;;;;;;5023927;28;20025;-55
2022/01/14 03:51:55;;;;;;;8.87;6.30;;;;;;;;;;5024339;28;20481;-54
2022/01/14 03:54:22;;;;;;;10.30;6.97;;;;;;;;;;5023033;28;20709;-54
2022/01/14 03:56:47;;;;;;;10.10;7.30;;;;;;;;;;5024159;28;20273;-57
2022/01/14 03:59:12;;;;;;;10.53;6.70;;;;;;;;;;5024133;28;20082;-54
2022/01/14 04:01:37;;;;;;;10.33;7.37;;;;;;;;;;5022484;28;20726;-55
2022/01/14 04:04:03;;;;;;;10.57;7.17;;;;;;;;;;5024147;28;20503;-55
2022/01/14 04:06:30;;;;;;;9.75;7.00;;;;;;;;;;5024269;28;20272;-57
2022/01/14 04:08:55;;;;;;;10.00;6.30;;;;;;;;;;5024156;28;20033;-57
2022/01/14 04:11:22;;;;;;;9.43;6.82;;;;;;;;;;5024315;28;20038;-53
2022/01/14 04:16:13;;;;;;;9.87;7.20;;;;;;;;;;5024085;28;20033;-55
2022/01/14 04:18:38;;;;;;;9.10;6.60;;;;;;;;;;5024137;28;20272;-54
2022/01/14 04:21:03;;;;;;;9.82;7.15;;;;;;;;;;5023875;28;20029;-57
2022/01/14 04:23:28;;;;;;;9.18;6.70;;;;;;;;;;5023633;28;20050;-60
2022/01/14 04:25:54;;;;;;;9.50;6.93;;;;;;;;;;5023809;28;20472;-54
2022/01/14 04:28:24;;;;;;;8.70;6.10;;;;;;;;;;5023829;28;20823;-56
2022/01/14 04:30:56;;;;;;;9.30;6.55;;;;;;;;;;5023801;28;20147;-53
2022/01/14 04:33:24;;;;;;;9.30;6.30;;;;;;;;;;5023917;28;20029;-54
2022/01/14 04:35:50;;;;;;;9.45;6.35;;;;;;;;;;5007761;28;20021;-52
2022/01/14 04:38:15;;;;;;;8.68;6.00;;;;;;;;;;5023452;28;20026;-53
2022/01/14 04:40:40;;;;;;;8.90;6.18;;;;;;;;;;5023656;28;20488;-52
2022/01/14 04:43:06;;;;;;;8.07;6.03;;;;;;;;;;5023707;28;20025;-55
2022/01/14 04:48:00;;;;;;;9.70;6.82;;;;;;;;;;5023423;28;20511;-54
2022/01/14 04:50:25;;;;;;;9.27;6.60;;;;;;;;;;5023370;28;20029;-57
2022/01/14 04:52:50;;;;;;;10.23;6.77;;;;;;;;;;5023373;28;20026;-52
2022/01/14 04:55:16;;;;;;;9.50;6.82;;;;;;;;;;5023708;28;20248;-57
2022/01/14 04:57:42;;;;;;;9.13;6.32;;;;;;;;;;5026743;28;20029;-53
2022/01/14 05:00:09;;;;;;;9.55;6.55;;;;;;;;;;5022370;28;20465;-52
2022/01/14 05:02:35;;;;;;;8.85;6.55;;;;;;;;;;5016520;28;20036;-52
2022/01/14 05:05:01;;;;;;;10.13;5.88;;;;;;;;;;5027043;28;20021;-55
2022/01/14 05:07:27;;;;;;;10.05;7.18;;;;;;;;;;5026773;28;20014;-53
2022/01/14 05:12:23;;;;;;;9.32;6.60;;;;;;;;;;5026978;28;20538;-52
2022/01/14 05:14:48;;;;;;;8.27;6.20;;;;;;;;;;5026563;28;20049;-53
2022/01/14 05:17:14;;;;;;;9.00;6.57;;;;;;;;;;5026859;28;20383;-54
2022/01/14 05:19:39;;;;;;;8.97;6.57;;;;;;;;;;5026393;28;20051;-55
2022/01/14 05:22:05;;;;;;;8.32;6.13;;;;;;;;;;5026203;28;20091;-55
2022/01/14 05:24:30;;;;;;;8.13;5.93;;;;;;;;;;5026738;28;20041;-56
2022/01/14 05:26:55;;;;;;;9.33;6.47;;;;;;;;;;5026670;28;20078;-57
2022/01/14 05:29:20;;;;;;;7.63;5.70;;;;;;;;;;5026935;28;20758;-55
2022/01/14 05:31:46;;;;;;;8.73;6.50;;;;;;;;;;5026385;28;20504;-54
2022/01/14 05:34:11;;;;;;;8.57;5.90;;;;;;;;;;5026354;28;20025;-56
2022/01/14 05:36:36;;;;;;;8.37;5.97;;;;;;;;;;5026464;28;20026;-55
2022/01/14 05:39:02;;;;;;;8.32;6.20;;;;;;;;;;5026143;28;20264;-54
2022/01/14 05:41:27;;;;;;;8.55;6.00;;;;;;;;;;5026075;28;20084;-52
2022/01/14 05:43:52;;;;;;;8.27;6.25;;;;;;;;;;5026488;28;20101;-51
2022/01/14 05:46:17;;;;;;;9.27;6.53;;;;;;;;;;5026290;28;20450;-53
2022/01/14 05:48:43;;;;;;;8.00;5.93;;;;;;;;;;5026173;28;20261;-55
2022/01/14 05:51:08;;;;;;;8.35;6.07;;;;;;;;;;5026261;28;20353;-53
2022/01/14 05:53:33;;;;;;;7.67;5.70;;;;;;;;;;5025810;28;20021;-54
2022/01/14 05:55:58;;;;;;;8.43;6.07;;;;;;;;;;5025316;28;20706;-54
2022/01/14 05:58:24;;;;;;;7.60;5.50;;;;;;;;;;5025592;28;20492;-55
2022/01/14 06:00:49;;;;;;;7.85;5.82;;;;;;;;;;5025738;28;20025;-53
2022/01/14 06:03:14;;;;;;;8.03;5.83;;;;;;;;;;5025299;28;20552;-60
2022/01/14 06:05:39;;;;;;;9.60;5.53;;;;;;;;;;5008962;28;20791;-58
2022/01/14 06:08:05;;;;;;;10.43;6.13;;;;;;;;;;5012602;28;20704;-52
2022/01/14 06:10:31;;;;;;;8.20;5.55;;;;;;;;;;5017295;28;20527;-54
2022/01/14 06:12:56;;;;;;;8.05;5.93;;;;;;;;;;5019034;28;20075;-59
2022/01/14 06:15:21;;;;;;;8.80;6.17;;;;;;;;;;5012257;28;20037;-58
2022/01/14 06:17:46;;;;;;;9.47;6.10;;;;;;;;;;5011018;28;20319;-58
2022/01/14 06:20:12;;;;;;;8.73;6.10;;;;;;;;;;5008691;28;20054;-59
2022/01/14 06:22:37;;;;;;;8.55;6.25;;;;;;;;;;5005031;28;20663;-57
2022/01/14 06:25:02;;;;;;;7.30;5.60;;;;;;;;;;5017620;28;20455;-60
2022/01/14 06:27:28;;;;;;;7.82;5.80;;;;;;;;;;5024832;28;20282;-57
2022/01/14 06:29:53;;;;;;;7.30;5.40;;;;;;;;;;5025101;28;20036;-60
2022/01/14 06:32:18;;;;;;;7.40;5.33;;;;;;;;;;5024798;28;20036;-59
2022/01/14 06:34:43;;;;;;;8.17;5.77;;;;;;;;;;5024999;28;20024;-60
2022/01/14 06:37:08;;;;;;;7.83;5.50;;;;;;;;;;5024933;28;20029;-57
2022/01/14 06:39:34;;;;;;;8.13;5.53;;;;;;;;;;5012565;28;20026;-58
2022/01/14 06:41:59;;;;;;;8.93;6.07;;;;;;;;;;5008945;28;20620;-58
2022/01/14 06:44:24;;;;;;;7.47;5.88;;;;;;;;;;5007695;28;20033;-56
2022/01/14 06:46:50;;;;;;;7.80;5.27;;;;;;;;;;5019912;28;20013;-56
2022/01/14 06:49:15;;;;;;;8.73;6.00;;;;;;;;;;5007134;28;20767;-54
2022/01/14 06:51:40;;;;;;;9.63;7.17;;;;;;;;;;5008172;28;20060;-51
2022/01/14 06:54:05;;;;;;;11.63;8.38;;;;;;;;;;5006629;28;20097;-55
2022/01/14 06:56:30;;;;;;;14.23;9.37;;;;;;;;;;5014138;28;20064;-60
2022/01/14 06:58:56;;;;;;;14.03;10.17;;;;;;;;;;5025088;28;20021;-56
2022/01/14 07:01:21;;;;;;;12.77;8.80;;;;;;;;;;5025307;28;20032;-57
2022/01/14 07:03:46;;;;;;;12.73;8.97;;;;;;;;;;5017869;28;20025;-57
2022/01/14 07:06:11;;;;;;;12.00;9.10;;;;;;;;;;5010263;28;20268;-60
2022/01/14 07:08:37;;;;;;;12.75;8.90;;;;;;;;;;5023976;28;20302;-55
2022/01/14 07:11:03;;;;;;;11.35;8.50;;;;;;;;;;5021228;28;20440;-57
2022/01/14 07:13:28;;;;;;;10.27;7.93;;;;;;;;;;5024366;28;20100;-56
2022/01/14 07:15:54;;;;;;;10.90;8.47;;;;;;;;;;5023959;28;20604;-57
2022/01/14 07:18:19;;;;;;;9.30;7.47;;;;;;;;;;5023568;28;20623;-57
2022/01/14 07:20:44;;;;;;;10.83;8.03;;;;;;;;;;5023636;28;20529;-56
2022/01/14 07:23:09;;;;;;;10.90;7.70;;;;;;;;;;5023821;28;20200;-60
2022/01/14 07:25:35;;;;;;;10.27;7.80;;;;;;;;;;5023616;28;20463;-59
2022/01/14 07:28:00;;;;;;;10.02;7.65;;;;;;;;;;5004286;28;20570;-60
2022/01/14 07:30:25;;;;;;;9.48;7.43;;;;;;;;;;5004933;28;20042;-61
2022/01/14 07:32:51;;;;;;;10.40;7.30;;;;;;;;;;5004950;28;20014;-56
2022/01/14 07:35:16;;;;;;;9.93;7.55;;;;;;;;;;5004586;28;20778;-57
2022/01/14 07:37:41;;;;;;;10.80;7.60;;;;;;;;;;5005254;28;20068;-58
2022/01/14 07:40:06;;;;;;;9.37;6.87;;;;;;;;;;5013549;28;20778;-54
2022/01/14 07:42:33;;;;;;;9.65;6.82;;;;;;;;;;5021045;28;20694;-57
2022/01/14 07:44:59;;;;;;;12.70;6.80;;;;;;;;;;5016315;28;20046;-53
2022/01/14 07:47:24;;;;;;;9.35;6.57;;;;;;;;;;5012638;28;20087;-57
2022/01/14 07:49:50;;;;;;;9.68;6.97;;;;;;;;;;5014660;28;20862;-57
2022/01/14 07:52:15;;;;;;;8.43;6.40;;;;;;;;;;5018237;28;20017;-55
2022/01/14 07:54:41;;;;;;;8.60;6.33;;;;;;;;;;5018090;28;20025;-56
2022/01/14 07:57:08;;;;;;;8.83;6.53;;;;;;;;;;5016941;28;20268;-54
2022/01/14 07:59:33;;;;;;;9.18;6.55;;;;;;;;;;5003345;28;20104;-56
2022/01/14 08:01:58;;;;;;;9.02;6.50;;;;;;;;;;5004508;28;20472;-55
2022/01/14 08:04:24;;;;;;;8.52;6.25;;;;;;;;;;5017921;28;20025;-55
2022/01/14 08:06:52;;;;;;;8.45;6.30;;;;;;;;;;5015545;28;20029;-56
2022/01/14 08:09:17;;;;;;;10.32;6.80;;;;;;;;;;5013264;28;20092;-57
2022/01/14 08:11:43;;;;;;;8.52;6.50;;;;;;;;;;5007006;28;20452;-55
2022/01/14 08:14:08;;;;;;;9.00;6.90;;;;;;;;;;5005866;28;20037;-57
2022/01/14 08:16:33;;;;;;;8.52;6.30;;;;;;;;;;5005569;28;20029;-57
2022/01/14 08:18:58;;;;;;;9.00;6.47;;;;;;;;;;5005495;28;20547;-57
2022/01/14 08:21:24;;;;;;;8.60;6.40;;;;;;;;;;5005465;28;20367;-57
2022/01/14 08:23:49;;;;;;;8.13;6.43;;;;;;;;;;5007421;28;20157;-56
2022/01/14 08:26:14;;;;;;;8.90;6.67;;;;;;;;;;5005431;28;20164;-55
2022/01/14 08:28:39;;;;;;;10.05;6.75;;;;;;;;;;5005496;28;20072;-57
2022/01/14 08:31:05;;;;;;;8.37;6.47;;;;;;;;;;5006710;28;20201;-57
2022/01/14 08:33:30;;;;;;;9.60;6.50;;;;;;;;;;5007371;28;20510;-57
2022/01/14 08:35:55;;;;;;;8.27;6.10;;;;;;;;;;5009393;28;20420;-59
2022/01/14 08:38:21;;;;;;;9.23;6.50;;;;;;;;;;5008933;28;20400;-55
2022/01/14 08:40:46;;;;;;;7.65;6.13;;;;;;;;;;5015036;28;20275;-54
2022/01/14 08:43:11;;;;;;;8.00;6.17;;;;;;;;;;5010396;28;20040;-57
2022/01/14 08:45:37;;;;;;;8.93;6.27;;;;;;;;;;5009311;28;21204;-56
2022/01/14 08:48:02;;;;;;;7.82;5.90;;;;;;;;;;5011306;28;20341;-56
2022/01/14 08:50:28;;;;;;;9.20;6.25;;;;;;;;;;5020520;28;20087;-55
2022/01/14 08:52:53;;;;;;;7.55;5.90;;;;;;;;;;5023879;28;20109;-55
2022/01/14 08:55:19;;;;;;;8.33;6.17;;;;;;;;;;5006102;28;20065;-56
2022/01/14 08:57:44;;;;;;;8.50;6.30;;;;;;;;;;5006518;28;20288;-55
2022/01/14 09:00:10;;;;;;;8.40;6.03;;;;;;;;;;5008621;28;20100;-54
2022/01/14 09:02:35;;;;;;;7.88;6.00;;;;;;;;;;5013812;28;20506;-57
2022/01/14 09:05:00;;;;;;;8.88;6.53;;;;;;;;;;5013508;28;20030;-57
2022/01/14 09:07:28;;;;;;;8.60;5.93;;;;;;;;;;5014116;28;20527;-56
2022/01/14 09:09:54;;;;;;;8.35;6.20;;;;;;;;;;5009831;28;20036;-56
2022/01/14 09:12:19;;;;;;;9.02;6.35;;;;;;;;;;5008332;28;20033;-56
2022/01/14 09:14:45;;;;;;;8.27;6.40;;;;;;;;;;5008551;28;20079;-57
2022/01/14 09:17:10;;;;;;;8.85;6.20;;;;;;;;;;5008593;28;20037;-52
2022/01/14 09:19:36;;;;;;;8.43;6.10;;;;;;;;;;5008358;28;20151;-56
2022/01/14 09:22:01;;;;;;;9.32;6.38;;;;;;;;;;5009864;28;20303;-57
2022/01/14 09:24:27;;;;;;;8.43;6.30;;;;;;;;;;5007959;28;20089;-55
2022/01/14 09:26:52;;;;;;;7.67;5.57;;;;;;;;;;5008048;28;20053;-59
2022/01/14 09:29:18;;;;;;;8.57;5.87;;;;;;;;;;5008215;28;20065;-58
2022/01/14 09:31:43;;;;;;;9.48;6.00;;;;;;;;;;5010978;28;20292;-56
2022/01/14 09:34:08;;;;;;;7.33;5.17;;;;;;;;;;5007253;28;20129;-55
2022/01/14 09:36:33;;;;;;;9.20;5.77;;;;;;;;;;5005787;28;20101;-57
2022/01/14 09:38:59;;;;;;;7.35;5.50;;;;;;;;;;5005489;28;20049;-57
2022/01/14 09:41:24;;;;;;;8.45;5.93;;;;;;;;;;5004874;28;20029;-57
2022/01/14 09:43:49;;;;;;;8.03;5.40;;;;;;;;;;5005781;28;20021;-54
2022/01/14 09:46:14;;;;;;;7.70;5.05;;;;;;;;;;5006625;28;20268;-54
2022/01/14 09:48:40;;;;;;;7.53;5.18;;;;;;;;;;5006294;28;20616;-60
2022/01/14 09:51:05;;;;;;;8.48;5.60;;;;;;;;;;5006265;28;20034;-57
2022/01/14 09:53:31;;;;;;;8.38;5.38;;;;;;;;;;5005015;28;20029;-56
2022/01/14 09:55:57;;;;;;;7.57;5.53;;;;;;;;;;5008151;28;20033;-56
2022/01/14 09:58:22;;;;;;;7.40;4.90;;;;;;;;;;5018992;28;20477;-56
2022/01/14 10:00:48;;;;;;;6.97;4.55;;;;;;;;;;5019676;28;20026;-57
2022/01/14 10:03:23;;;;;;;8.17;4.83;;;;;;;;;;5018947;28;20053;-58
2022/01/14 10:05:51;;;;;;;7.95;5.18;;;;;;;;;;5025748;28;20276;-55
2022/01/14 10:08:22;;;;;;;7.10;4.95;;;;;;;;;;5022514;28;20480;-54
2022/01/14 10:10:49;;;;;;;8.00;4.80;;;;;;;;;;5025362;28;20687;-60
2022/01/14 10:13:17;;;;;;;7.70;5.38;;;;;;;;;;5013825;28;20072;-56
2022/01/14 10:15:46;;;;;;;7.95;4.63;;;;;;;;;;5022296;28;20025;-53
2022/01/14 10:18:16;;;;;;;7.80;4.83;;;;;;;;;;5022832;28;20079;-57
2022/01/14 10:20:41;;;;;;;6.35;4.22;;;;;;;;;;5014312;28;20021;-56
2022/01/14 10:23:07;;;;;;;9.00;5.10;;;;;;;;;;5025593;28;20389;-53
2022/01/14 10:25:32;;;;;;;7.63;4.90;;;;;;;;;;5025991;28;20044;-60
2022/01/14 10:27:57;;;;;;;9.53;4.77;;;;;;;;;;5025838;28;20033;-58
2022/01/14 10:30:29;;;;;;;7.20;4.80;;;;;;;;;;5025937;28;20307;-51
2022/01/14 10:33:00;;;;;;;8.02;4.93;;;;;;;;;;5025626;28;20053;-51
2022/01/14 10:35:29;;;;;;;6.78;4.88;;;;;;;;;;5025600;28;20029;-59
2022/01/14 10:37:55;;;;;;;6.50;4.18;;;;;;;;;;5022159;28;20057;-58
2022/01/14 10:40:21;;;;;;;5.88;4.38;;;;;;;;;;5007974;28;20030;-54
2022/01/14 10:42:47;;;;;;;9.32;4.55;;;;;;;;;;5014584;28;20014;-56
2022/01/14 10:45:17;;;;;;;7.38;4.45;;;;;;;;;;5025103;28;20801;-57
2022/01/14 10:47:42;;;;;;;6.38;4.43;;;;;;;;;;5024579;28;20037;-54
2022/01/14 10:50:07;;;;;;;7.20;4.47;;;;;;;;;;5023195;28;20555;-55
2022/01/14 10:52:33;;;;;;;6.67;3.63;;;;;;;;;;5016123;28;20041;-60
2022/01/14 10:54:58;;;;;;;7.13;4.10;;;;;;;;;;5016171;28;20256;-56
2022/01/14 10:57:23;;;;;;;6.82;4.25;;;;;;;;;;5024096;28;20021;-56
2022/01/14 10:59:49;;;;;;;6.60;4.10;;;;;;;;;;5024891;28;20063;-55
2022/01/14 11:02:30;;;;;;;5.63;4.03;;;;;;;;;;5020284;28;20064;-52
2022/01/14 11:05:01;;;;;;;6.13;4.03;;;;;;;;;;5015234;28;20026;-53
2022/01/14 11:07:26;;;;;;;7.03;4.30;;;;;;;;;;5024953;28;20040;-60
2022/01/14 11:09:52;;;;;;;6.40;4.13;;;;;;;;;;5015895;28;20420;-53
2022/01/14 11:12:17;;;;;;;6.82;4.07;;;;;;;;;;5006553;28;20459;-58
2022/01/14 11:14:43;;;;;;;6.45;4.15;;;;;;;;;;5005001;28;20010;-62
2022/01/14 11:17:09;;;;;;;11.70;4.50;;;;;;;;;;5014914;28;20025;-59
2022/01/14 11:19:34;;;;;;;8.40;4.40;;;;;;;;;;5024479;28;20025;-51
2022/01/14 11:25:00;;;;;;;7.00;4.43;;;;;;;;;;4992025;28;20116;-61
2022/01/14 11:27:25;;;;;;;6.70;3.97;;;;;;;;;;5008825;28;20033;-62
2022/01/14 11:29:57;;;;;;;7.67;4.50;;;;;;;;;;5023416;28;20055;-60
2022/01/14 11:32:22;;;;;;;7.15;3.90;;;;;;;;;;5023330;28;20291;-57
2022/01/14 11:34:48;;;;;;;6.60;4.30;;;;;;;;;;5008712;28;20022;-56
2022/01/14 11:37:14;;;;;;;7.05;3.70;;;;;;;;;;5006830;28;20022;-57
2022/01/14 11:39:40;;;;;;;6.18;3.70;;;;;;;;;;5006442;28;20058;-61
2022/01/14 11:42:08;;;;;;;6.28;3.65;;;;;;;;;;5007628;28;20454;-51
2022/01/14 11:44:52;;;;;;;6.75;4.20;;;;;;;;;;5019182;28;20038;-53
2022/01/14 11:47:24;;;;;;;5.95;3.67;;;;;;;;;;5016030;28;20112;-51
2022/01/14 11:49:49;;;;;;;7.00;3.70;;;;;;;;;;5013654;28;20026;-53
2022/01/14 11:52:14;;;;;;;4.77;3.57;;;;;;;;;;5005415;28;20512;-52
2022/01/14 11:54:40;;;;;;;5.60;3.73;;;;;;;;;;5004572;28;20504;-53
2022/01/14 11:57:05;;;;;;;6.82;3.92;;;;;;;;;;5004884;28;20038;-52
2022/01/14 11:59:30;;;;;;;6.80;4.00;;;;;;;;;;5002527;28;20385;-53
2022/01/14 12:01:56;;;;;;;6.10;3.47;;;;;;;;;;5006336;28;20018;-53
2022/01/14 12:04:21;;;;;;;5.25;3.58;;;;;;;;;;5003634;28;20116;-52
2022/01/14 12:06:50;;;;;;;6.25;3.67;;;;;;;;;;5011985;28;20041;-55
2022/01/14 12:09:15;;;;;;;6.72;3.80;;;;;;;;;;5007467;28;20422;-52
2022/01/14 12:11:40;;;;;;;7.38;3.60;;;;;;;;;;5009394;28;20076;-51
2022/01/14 12:14:07;;;;;;;5.73;3.60;;;;;;;;;;5008350;28;21044;-53
2022/01/14 12:18:58;;;;;;;5.95;3.40;;;;;;;;;;5009893;28;20702;-58
2022/01/14 12:21:42;;;;;;;5.50;3.37;;;;;;;;;;5008869;28;20397;-58
2022/01/14 12:24:19;;;;;;;5.53;3.75;;;;;;;;;;5009044;28;20112;-61
2022/01/14 12:26:44;;;;;;;5.18;3.30;;;;;;;;;;5010328;28;20029;-58
2022/01/14 12:29:14;;;;;;;5.37;3.20;;;;;;;;;;5010768;28;20561;-58
2022/01/14 12:31:58;;;;;;;5.50;3.38;;;;;;;;;;5014027;28;20038;-60
2022/01/14 12:34:23;;;;;;;4.60;3.00;;;;;;;;;;5012291;28;20029;-57
2022/01/14 12:36:48;;;;;;;5.77;3.47;;;;;;;;;;5018519;28;20033;-62
2022/01/14 12:39:13;;;;;;;6.27;3.40;;;;;;;;;;5013834;28;20021;-59
2022/01/14 12:41:39;;;;;;;5.17;3.17;;;;;;;;;;5010698;28;20037;-57
2022/01/14 12:44:04;;;;;;;5.23;3.30;;;;;;;;;;5012370;28;20022;-58
2022/01/14 12:49:19;;;;;;;4.25;3.25;;;;;;;;;;5019013;28;20068;-59
2022/01/14 12:51:45;;;;;;;5.03;2.92;;;;;;;;;;5016675;28;20029;-60
2022/01/14 12:54:11;;;;;;;4.73;2.93;;;;;;;;;;5013297;28;20491;-56
2022/01/14 12:56:37;;;;;;;4.35;2.78;;;;;;;;;;5008161;28;20261;-61
2022/01/14 12:59:05;;;;;;;5.60;2.97;;;;;;;;;;5016734;28;20034;-62
2022/01/14 13:01:33;;;;;;;5.15;3.20;;;;;;;;;;5017688;28;20032;-61
2022/01/14 13:03:58;;;;;;;4.13;2.80;;;;;;;;;;5015897;28;20120;-60
2022/01/14 13:06:24;;;;;;;4.28;2.83;;;;;;;;;;5022981;28;20097;-60
2022/01/14 13:08:58;;;;;;;5.85;3.22;;;;;;;;;;5015000;28;20034;-52
2022/01/14 13:11:24;;;;;;;4.53;3.03;;;;;;;;;;5016528;28;20037;-55
2022/01/14 13:13:59;;;;;;;4.55;2.83;;;;;;;;;;5017657;28;20497;-55
2022/01/14 13:16:24;;;;;;;5.82;3.28;;;;;;;;;;5006941;28;20029;-57
2022/01/14 13:18:49;;;;;;;6.18;3.38;;;;;;;;;;5015300;28;20090;-55
2022/01/14 13:21:15;;;;;;;4.27;2.70;;;;;;;;;;5014108;28;20029;-58
2022/01/14 13:23:40;;;;;;;5.63;3.10;;;;;;;;;;5018615;28;20303;-55
2022/01/14 13:26:08;;;;;;;3.97;2.70;;;;;;;;;;5011090;28;20299;-52
2022/01/14 13:28:33;;;;;;;3.65;2.30;;;;;;;;;;5012753;28;20268;-57
2022/01/14 13:30:58;;;;;;;4.60;2.73;;;;;;;;;;5007815;28;20088;-55
2022/01/14 13:33:24;;;;;;;4.23;2.70;;;;;;;;;;5007065;28;20281;-54
2022/01/14 13:35:49;;;;;;;3.53;2.70;;;;;;;;;;5013825;28;20319;-57
2022/01/14 13:38:18;;;;;;;4.07;2.58;;;;;;;;;;5015446;28;20032;-58
2022/01/14 13:40:47;;;;;;;4.47;2.83;;;;;;;;;;5006164;28;20026;-58
2022/01/14 13:43:13;;;;;;;3.97;2.70;;;;;;;;;;5008769;28;20036;-58
2022/01/14 13:45:45;;;;;;;3.97;2.70;;;;;;;;;;5006010;28;20269;-55
2022/01/14 13:48:12;;;;;;;4.75;2.70;;;;;;;;;;5011497;28;20060;-57
2022/01/14 13:50:41;;;;;;;4.00;2.83;;;;;;;;;;5005780;28;20064;-57
2022/01/14 13:53:06;;;;;;;3.75;2.60;;;;;;;;;;5008384;28;20034;-55
2022/01/14 13:55:37;;;;;;;4.15;2.65;;;;;;;;;;5011013;28;20021;-54
2022/01/14 13:58:03;;;;;;;5.25;2.63;;;;;;;;;;5009411;28;20029;-57
2022/01/14 14:00:29;;;;;;;5.28;2.63;;;;;;;;;;5007143;28;20165;-62
2022/01/14 14:02:54;;;;;;;3.92;2.50;;;;;;;;;;5010835;28;20103;-54
2022/01/14 14:05:56;;;;;;;3.77;2.53;;;;;;;;;;5005996;28;20453;-58
2022/01/14 14:08:41;;;;;;;4.15;2.50;;;;;;;;;;4987022;28;20045;-51
2022/01/14 14:16:43;;;;;;;4.00;2.42;;;;;;;;;;5010009;28;20420;-52
2022/01/14 14:19:08;;;;;;;3.87;2.57;;;;;;;;;;5006360;28;20100;-52
2022/01/14 14:21:34;;;;;;;3.60;2.20;;;;;;;;;;5008381;28;20049;-53
2022/01/14 14:23:59;;;;;;;3.45;2.42;;;;;;;;;;5005925;28;20062;-55
2022/01/14 14:26:31;;;;;;;3.22;2.20;;;;;;;;;;5006566;28;20018;-54
2022/01/14 14:29:00;;;;;;;3.20;2.45;;;;;;;;;;5010766;28;20091;-53
2022/01/14 14:31:30;;;;;;;3.78;2.45;;;;;;;;;;5007377;28;20456;-54
2022/01/14 14:33:55;;;;;;;2.77;2.17;;;;;;;;;;5006553;28;20022;-53
2022/01/14 14:36:22;;;;;;;3.20;2.30;;;;;;;;;;5016768;28;20040;-53
2022/01/14 14:38:47;;;;;;;4.78;2.20;;;;;;;;;;5012643;28;20025;-54
2022/01/14 14:41:13;;;;;;;3.83;2.30;;;;;;;;;;5011303;28;20099;-53
2022/01/14 14:43:38;;;;;;;3.83;2.80;;;;;;;;;;5010925;28;20058;-53
2022/01/14 14:46:04;;;;;;;4.03;2.20;;;;;;;;;;5006874;28;20061;-52
2022/01/14 14:48:29;;;;;;;5.30;2.65;;;;;;;;;;5010465;28;20036;-54
2022/01/14 14:50:55;;;;;;;3.70;2.25;;;;;;;;;;5014785;28;20041;-52
2022/01/14 14:53:20;;;;;;;3.83;2.05;;;;;;;;;;5010421;28;20085;-54
2022/01/14 14:55:45;;;;;;;3.17;2.27;;;;;;;;;;5010985;28;20040;-52
2022/01/14 14:58:10;;;;;;;3.38;2.40;;;;;;;;;;5014940;28;20033;-52
2022/01/14 15:00:36;;;;;;;3.47;2.30;;;;;;;;;;5005320;28;20113;-53
2022/01/14 15:03:05;;;;;;;4.13;2.40;;;;;;;;;;5012906;28;20329;-54
2022/01/14 15:05:31;;;;;;;3.20;2.20;;;;;;;;;;5005493;28;20268;-53
2022/01/14 15:07:56;;;;;;;3.17;2.23;;;;;;;;;;5012849;28;20040;-52
2022/01/14 15:10:22;;;;;;;2.90;2.10;;;;;;;;;;5010193;28;20284;-53
2022/01/14 15:12:47;;;;;;;2.97;1.90;;;;;;;;;;5011669;28;20284;-52
2022/01/14 15:15:19;;;;;;;3.20;1.90;;;;;;;;;;5010754;28;20022;-50
2022/01/14 15:20:28;;;;;;;3.42;2.22;;;;;;;;;;5012540;28;20565;-58
2022/01/14 15:22:54;;;;;;;3.90;2.10;;;;;;;;;;5007962;28;20034;-55